sensor_id;sensor_type;location;lat;lon;timestamp;P1;durP1;ratioP1;P2;durP2;ratioP2
25341;SDS011;13298;48.792;9.154;2022-08-19T00:01:35;13.45;;;10.75;;
25341;SDS011;13298;48.792;9.154;2022-08-19T00:04:03;17.45;;;12.38;;
25341;SDS011;13298;48.792;9.154;2022-08-19T00:06:33;12.50;;;10.80;;
25341;SDS011;13298;48.792;9.154;2022-08-19T00:09:01;16.92;;;12.50;;
25341;SDS011;13298;48.792;9.154;2022-08-19T00:11:29;12.90;;;11.30;;
25341;SDS011;13298;48.792;9.154;2022-08-19T00:13:55;12.60;;;10.18;;
25341;SDS011;13298;48.792;9.154;2022-08-19T00:16:21;15.95;;;11.30;;
25341;SDS011;13298;48.792;9.154;2022-08-19T00:18:49;14.52;;;11.63;;
25341;SDS011;13298;48.792;9.154;2022-08-19T00:21:15;12.88;;;10.63;;
25341;SDS011;13298;48.792;9.154;2022-08-19T00:23:41;18.48;;;12.20;;
25341;SDS011;13298;48.792;9.154;2022-08-19T00:26:08;15.82;;;13.13;;
25341;SDS011;13298;48.792;9.154;2022-08-19T00:28:36;13.20;;;11.10;;
25341;SDS011;13298;48.792;9.154;2022-08-19T00:31:03;14.57;;;11.07;;
25341;SDS011;13298;48.792;9.154;2022-08-19T00:33:31;18.40;;;11.35;;
25341;SDS011;13298;48.792;9.154;2022-08-19T00:35:57;13.57;;;11.00;;
25341;SDS011;13298;48.792;9.154;2022-08-19T00:38:29;13.73;;;11.07;;
25341;SDS011;13298;48.792;9.154;2022-08-19T00:40:55;14.50;;;11.70;;
25341;SDS011;13298;48.792;9.154;2022-08-19T00:43:22;13.68;;;11.55;;
25341;SDS011;13298;48.792;9.154;2022-08-19T00:45:51;16.17;;;11.75;;
25341;SDS011;13298;48.792;9.154;2022-08-19T00:48:17;16.60;;;11.88;;
25341;SDS011;13298;48.792;9.154;2022-08-19T00:50:44;13.77;;;11.30;;
25341;SDS011;13298;48.792;9.154;2022-08-19T00:53:12;14.45;;;11.15;;
25341;SDS011;13298;48.792;9.154;2022-08-19T00:55:42;16.70;;;12.93;;
25341;SDS011;13298;48.792;9.154;2022-08-19T00:58:12;13.65;;;11.20;;
25341;SDS011;13298;48.792;9.154;2022-08-19T01:00:41;17.92;;;11.95;;
25341;SDS011;13298;48.792;9.154;2022-08-19T01:03:08;14.57;;;10.88;;
25341;SDS011;13298;48.792;9.154;2022-08-19T01:05:36;14.18;;;11.20;;
25341;SDS011;13298;48.792;9.154;2022-08-19T01:08:05;16.10;;;11.43;;
25341;SDS011;13298;48.792;9.154;2022-08-19T01:10:33;13.27;;;11.52;;
25341;SDS011;13298;48.792;9.154;2022-08-19T01:13:05;15.63;;;10.90;;
25341;SDS011;13298;48.792;9.154;2022-08-19T01:15:32;15.30;;;10.98;;
25341;SDS011;13298;48.792;9.154;2022-08-19T01:18:06;13.45;;;11.00;;
25341;SDS011;13298;48.792;9.154;2022-08-19T01:20:34;17.17;;;12.43;;
25341;SDS011;13298;48.792;9.154;2022-08-19T01:23:00;14.88;;;11.30;;
25341;SDS011;13298;48.792;9.154;2022-08-19T01:25:28;14.82;;;10.98;;
25341;SDS011;13298;48.792;9.154;2022-08-19T01:28:06;16.17;;;12.00;;
25341;SDS011;13298;48.792;9.154;2022-08-19T01:30:33;14.65;;;11.77;;
25341;SDS011;13298;48.792;9.154;2022-08-19T01:33:01;15.73;;;12.15;;
25341;SDS011;13298;48.792;9.154;2022-08-19T01:35:29;15.00;;;11.63;;
25341;SDS011;13298;48.792;9.154;2022-08-19T01:37:58;18.30;;;13.55;;
25341;SDS011;13298;48.792;9.154;2022-08-19T01:40:31;15.65;;;11.90;;
25341;SDS011;13298;48.792;9.154;2022-08-19T01:43:00;18.58;;;13.20;;
25341;SDS011;13298;48.792;9.154;2022-08-19T01:45:28;15.07;;;12.23;;
25341;SDS011;13298;48.792;9.154;2022-08-19T01:47:56;16.25;;;11.95;;
25341;SDS011;13298;48.792;9.154;2022-08-19T01:50:23;17.95;;;13.27;;
25341;SDS011;13298;48.792;9.154;2022-08-19T01:52:49;16.08;;;12.57;;
25341;SDS011;13298;48.792;9.154;2022-08-19T01:55:16;15.68;;;12.40;;
25341;SDS011;13298;48.792;9.154;2022-08-19T01:57:46;17.17;;;12.05;;
25341;SDS011;13298;48.792;9.154;2022-08-19T02:00:17;15.73;;;12.27;;
25341;SDS011;13298;48.792;9.154;2022-08-19T02:02:45;20.83;;;13.77;;
25341;SDS011;13298;48.792;9.154;2022-08-19T02:05:11;17.67;;;13.32;;
25341;SDS011;13298;48.792;9.154;2022-08-19T02:07:38;15.20;;;12.82;;
25341;SDS011;13298;48.792;9.154;2022-08-19T02:10:07;15.57;;;12.48;;
25341;SDS011;13298;48.792;9.154;2022-08-19T02:12:37;16.60;;;13.73;;
25341;SDS011;13298;48.792;9.154;2022-08-19T02:15:03;17.05;;;12.57;;
25341;SDS011;13298;48.792;9.154;2022-08-19T02:17:30;17.60;;;13.55;;
25341;SDS011;13298;48.792;9.154;2022-08-19T02:19:56;16.60;;;13.10;;
25341;SDS011;13298;48.792;9.154;2022-08-19T02:22:22;17.38;;;12.90;;
25341;SDS011;13298;48.792;9.154;2022-08-19T02:28:31;19.42;;;14.00;;
25341;SDS011;13298;48.792;9.154;2022-08-19T02:30:57;16.92;;;13.25;;
25341;SDS011;13298;48.792;9.154;2022-08-19T02:33:25;20.75;;;13.95;;
25341;SDS011;13298;48.792;9.154;2022-08-19T02:35:52;19.52;;;14.10;;
25341;SDS011;13298;48.792;9.154;2022-08-19T02:38:17;17.80;;;13.75;;
25341;SDS011;13298;48.792;9.154;2022-08-19T02:40:53;19.30;;;15.10;;
25341;SDS011;13298;48.792;9.154;2022-08-19T02:43:26;19.00;;;14.05;;
25341;SDS011;13298;48.792;9.154;2022-08-19T02:45:54;18.75;;;14.07;;
25341;SDS011;13298;48.792;9.154;2022-08-19T02:48:21;18.30;;;13.75;;
25341;SDS011;13298;48.792;9.154;2022-08-19T02:50:50;19.52;;;14.90;;
25341;SDS011;13298;48.792;9.154;2022-08-19T02:53:20;23.40;;;15.25;;
25341;SDS011;13298;48.792;9.154;2022-08-19T02:55:47;19.65;;;14.50;;
25341;SDS011;13298;48.792;9.154;2022-08-19T02:58:14;18.83;;;14.45;;
25341;SDS011;13298;48.792;9.154;2022-08-19T03:00:41;20.13;;;15.30;;
25341;SDS011;13298;48.792;9.154;2022-08-19T03:03:14;21.13;;;15.23;;
25341;SDS011;13298;48.792;9.154;2022-08-19T03:05:40;21.27;;;14.82;;
25341;SDS011;13298;48.792;9.154;2022-08-19T03:08:06;20.35;;;15.02;;
25341;SDS011;13298;48.792;9.154;2022-08-19T03:10:39;18.70;;;14.63;;
25341;SDS011;13298;48.792;9.154;2022-08-19T03:13:09;21.38;;;15.77;;
25341;SDS011;13298;48.792;9.154;2022-08-19T03:15:39;22.17;;;15.93;;
25341;SDS011;13298;48.792;9.154;2022-08-19T03:18:07;23.27;;;16.73;;
25341;SDS011;13298;48.792;9.154;2022-08-19T03:20:33;24.27;;;16.85;;
25341;SDS011;13298;48.792;9.154;2022-08-19T03:22:59;23.27;;;17.52;;
25341;SDS011;13298;48.792;9.154;2022-08-19T03:25:24;21.33;;;17.17;;
25341;SDS011;13298;48.792;9.154;2022-08-19T03:27:50;24.05;;;17.75;;
25341;SDS011;13298;48.792;9.154;2022-08-19T03:30:16;23.23;;;17.80;;
25341;SDS011;13298;48.792;9.154;2022-08-19T03:32:41;21.73;;;17.25;;
25341;SDS011;13298;48.792;9.154;2022-08-19T03:35:08;25.73;;;18.73;;
25341;SDS011;13298;48.792;9.154;2022-08-19T03:37:34;22.98;;;16.92;;
25341;SDS011;13298;48.792;9.154;2022-08-19T03:39:59;23.42;;;17.70;;
25341;SDS011;13298;48.792;9.154;2022-08-19T03:42:28;24.02;;;18.10;;
25341;SDS011;13298;48.792;9.154;2022-08-19T03:44:54;25.02;;;18.77;;
25341;SDS011;13298;48.792;9.154;2022-08-19T03:47:20;28.08;;;18.60;;
25341;SDS011;13298;48.792;9.154;2022-08-19T03:49:45;25.33;;;19.25;;
25341;SDS011;13298;48.792;9.154;2022-08-19T03:52:11;26.08;;;19.38;;
25341;SDS011;13298;48.792;9.154;2022-08-19T03:54:37;26.65;;;19.40;;
25341;SDS011;13298;48.792;9.154;2022-08-19T03:57:03;26.17;;;19.95;;
25341;SDS011;13298;48.792;9.154;2022-08-19T03:59:31;23.15;;;17.95;;
25341;SDS011;13298;48.792;9.154;2022-08-19T04:02:00;24.15;;;18.35;;
25341;SDS011;13298;48.792;9.154;2022-08-19T04:04:28;25.38;;;19.42;;
25341;SDS011;13298;48.792;9.154;2022-08-19T04:06:54;26.23;;;19.23;;
25341;SDS011;13298;48.792;9.154;2022-08-19T04:09:21;27.60;;;19.25;;
25341;SDS011;13298;48.792;9.154;2022-08-19T04:11:48;24.85;;;19.42;;
25341;SDS011;13298;48.792;9.154;2022-08-19T04:14:19;22.55;;;17.67;;
25341;SDS011;13298;48.792;9.154;2022-08-19T04:16:47;23.75;;;18.02;;
25341;SDS011;13298;48.792;9.154;2022-08-19T04:19:14;28.35;;;19.33;;
25341;SDS011;13298;48.792;9.154;2022-08-19T04:21:43;25.73;;;18.80;;
25341;SDS011;13298;48.792;9.154;2022-08-19T04:24:13;23.63;;;18.02;;
25341;SDS011;13298;48.792;9.154;2022-08-19T04:26:39;24.63;;;19.05;;
25341;SDS011;13298;48.792;9.154;2022-08-19T04:29:13;24.98;;;19.33;;
25341;SDS011;13298;48.792;9.154;2022-08-19T04:31:42;25.77;;;19.52;;
25341;SDS011;13298;48.792;9.154;2022-08-19T04:34:10;25.75;;;18.20;;
25341;SDS011;13298;48.792;9.154;2022-08-19T04:36:39;28.85;;;18.38;;
25341;SDS011;13298;48.792;9.154;2022-08-19T04:39:08;27.67;;;19.40;;
25341;SDS011;13298;48.792;9.154;2022-08-19T04:41:37;27.60;;;20.10;;
25341;SDS011;13298;48.792;9.154;2022-08-19T04:44:21;22.58;;;18.05;;
25341;SDS011;13298;48.792;9.154;2022-08-19T04:46:48;26.05;;;17.23;;
25341;SDS011;13298;48.792;9.154;2022-08-19T04:49:15;23.02;;;18.33;;
25341;SDS011;13298;48.792;9.154;2022-08-19T04:51:44;24.52;;;18.55;;
25341;SDS011;13298;48.792;9.154;2022-08-19T04:54:12;22.58;;;18.13;;
25341;SDS011;13298;48.792;9.154;2022-08-19T04:56:39;30.38;;;21.30;;
25341;SDS011;13298;48.792;9.154;2022-08-19T04:59:06;23.58;;;17.50;;
25341;SDS011;13298;48.792;9.154;2022-08-19T05:01:33;27.45;;;19.48;;
25341;SDS011;13298;48.792;9.154;2022-08-19T05:04:00;25.70;;;18.58;;
25341;SDS011;13298;48.792;9.154;2022-08-19T05:06:29;23.83;;;18.50;;
25341;SDS011;13298;48.792;9.154;2022-08-19T05:08:57;21.63;;;17.92;;
25341;SDS011;13298;48.792;9.154;2022-08-19T05:11:27;25.63;;;20.33;;
25341;SDS011;13298;48.792;9.154;2022-08-19T05:13:59;25.25;;;18.90;;
25341;SDS011;13298;48.792;9.154;2022-08-19T05:16:26;27.77;;;18.35;;
25341;SDS011;13298;48.792;9.154;2022-08-19T05:18:52;24.95;;;18.20;;
25341;SDS011;13298;48.792;9.154;2022-08-19T05:21:37;24.63;;;18.90;;
25341;SDS011;13298;48.792;9.154;2022-08-19T05:24:24;28.63;;;21.40;;
25341;SDS011;13298;48.792;9.154;2022-08-19T05:26:50;25.00;;;18.95;;
25341;SDS011;13298;48.792;9.154;2022-08-19T05:29:21;26.65;;;18.98;;
25341;SDS011;13298;48.792;9.154;2022-08-19T05:31:49;22.45;;;16.30;;
25341;SDS011;13298;48.792;9.154;2022-08-19T05:34:17;26.67;;;19.65;;
25341;SDS011;13298;48.792;9.154;2022-08-19T05:36:46;22.48;;;17.55;;
25341;SDS011;13298;48.792;9.154;2022-08-19T05:39:14;20.15;;;16.00;;
25341;SDS011;13298;48.792;9.154;2022-08-19T05:41:48;24.05;;;19.48;;
25341;SDS011;13298;48.792;9.154;2022-08-19T05:44:18;25.00;;;19.98;;
25341;SDS011;13298;48.792;9.154;2022-08-19T05:46:45;22.08;;;17.83;;
25341;SDS011;13298;48.792;9.154;2022-08-19T05:49:17;22.52;;;17.80;;
25341;SDS011;13298;48.792;9.154;2022-08-19T05:51:44;23.00;;;16.77;;
25341;SDS011;13298;48.792;9.154;2022-08-19T05:54:10;18.55;;;15.52;;
25341;SDS011;13298;48.792;9.154;2022-08-19T05:56:38;21.80;;;17.25;;
25341;SDS011;13298;48.792;9.154;2022-08-19T05:59:08;24.17;;;17.90;;
25341;SDS011;13298;48.792;9.154;2022-08-19T06:01:40;27.30;;;20.40;;
25341;SDS011;13298;48.792;9.154;2022-08-19T06:04:08;21.85;;;17.55;;
25341;SDS011;13298;48.792;9.154;2022-08-19T06:06:34;24.60;;;18.10;;
25341;SDS011;13298;48.792;9.154;2022-08-19T06:09:01;21.83;;;16.70;;
25341;SDS011;13298;48.792;9.154;2022-08-19T06:14:16;23.08;;;17.63;;
25341;SDS011;13298;48.792;9.154;2022-08-19T06:16:44;22.13;;;17.45;;
25341;SDS011;13298;48.792;9.154;2022-08-19T06:19:11;19.60;;;16.08;;
25341;SDS011;13298;48.792;9.154;2022-08-19T06:21:43;27.23;;;20.23;;
25341;SDS011;13298;48.792;9.154;2022-08-19T06:24:11;20.52;;;16.10;;
25341;SDS011;13298;48.792;9.154;2022-08-19T06:26:42;25.30;;;17.65;;
25341;SDS011;13298;48.792;9.154;2022-08-19T06:29:10;26.20;;;19.65;;
25341;SDS011;13298;48.792;9.154;2022-08-19T06:31:41;20.33;;;16.70;;
25341;SDS011;13298;48.792;9.154;2022-08-19T06:34:09;22.52;;;17.33;;
25341;SDS011;13298;48.792;9.154;2022-08-19T06:36:36;23.50;;;17.05;;
25341;SDS011;13298;48.792;9.154;2022-08-19T06:39:08;24.02;;;18.90;;
25341;SDS011;13298;48.792;9.154;2022-08-19T06:41:38;25.58;;;19.15;;
25341;SDS011;13298;48.792;9.154;2022-08-19T06:44:07;20.70;;;17.08;;
25341;SDS011;13298;48.792;9.154;2022-08-19T06:46:33;21.27;;;16.77;;
25341;SDS011;13298;48.792;9.154;2022-08-19T06:48:59;21.85;;;17.30;;
25341;SDS011;13298;48.792;9.154;2022-08-19T06:51:25;26.63;;;19.00;;
25341;SDS011;13298;48.792;9.154;2022-08-19T06:53:52;26.20;;;20.27;;
25341;SDS011;13298;48.792;9.154;2022-08-19T06:56:23;21.88;;;17.45;;
25341;SDS011;13298;48.792;9.154;2022-08-19T06:59:00;25.70;;;18.10;;
25341;SDS011;13298;48.792;9.154;2022-08-19T07:01:33;24.00;;;19.48;;
25341;SDS011;13298;48.792;9.154;2022-08-19T07:04:11;25.17;;;19.80;;
25341;SDS011;13298;48.792;9.154;2022-08-19T07:06:40;24.45;;;18.70;;
25341;SDS011;13298;48.792;9.154;2022-08-19T07:09:07;27.05;;;20.02;;
25341;SDS011;13298;48.792;9.154;2022-08-19T07:11:35;27.50;;;19.02;;
25341;SDS011;13298;48.792;9.154;2022-08-19T07:14:01;27.27;;;20.08;;
25341;SDS011;13298;48.792;9.154;2022-08-19T07:16:28;24.02;;;17.83;;
25341;SDS011;13298;48.792;9.154;2022-08-19T07:18:54;25.15;;;19.40;;
25341;SDS011;13298;48.792;9.154;2022-08-19T07:21:22;25.27;;;21.80;;
25341;SDS011;13298;48.792;9.154;2022-08-19T07:23:54;23.48;;;18.27;;
25341;SDS011;13298;48.792;9.154;2022-08-19T07:26:23;22.70;;;18.05;;
25341;SDS011;13298;48.792;9.154;2022-08-19T07:28:52;22.90;;;18.90;;
25341;SDS011;13298;48.792;9.154;2022-08-19T07:31:19;24.83;;;19.17;;
25341;SDS011;13298;48.792;9.154;2022-08-19T07:33:48;26.05;;;18.80;;
25341;SDS011;13298;48.792;9.154;2022-08-19T07:36:17;23.17;;;18.65;;
25341;SDS011;13298;48.792;9.154;2022-08-19T07:38:48;21.98;;;17.60;;
25341;SDS011;13298;48.792;9.154;2022-08-19T07:41:18;25.85;;;18.42;;
25341;SDS011;13298;48.792;9.154;2022-08-19T07:43:48;20.65;;;17.25;;
25341;SDS011;13298;48.792;9.154;2022-08-19T07:46:15;20.10;;;16.83;;
25341;SDS011;13298;48.792;9.154;2022-08-19T07:48:42;22.85;;;18.65;;
25341;SDS011;13298;48.792;9.154;2022-08-19T07:51:11;22.48;;;17.80;;
25341;SDS011;13298;48.792;9.154;2022-08-19T07:53:38;22.05;;;16.15;;
25341;SDS011;13298;48.792;9.154;2022-08-19T07:56:04;21.65;;;16.98;;
25341;SDS011;13298;48.792;9.154;2022-08-19T07:58:31;22.55;;;16.67;;
25341;SDS011;13298;48.792;9.154;2022-08-19T08:01:00;24.00;;;17.77;;
25341;SDS011;13298;48.792;9.154;2022-08-19T08:03:27;22.20;;;17.05;;
25341;SDS011;13298;48.792;9.154;2022-08-19T08:06:13;22.67;;;17.20;;
25341;SDS011;13298;48.792;9.154;2022-08-19T08:08:59;24.23;;;15.48;;
25341;SDS011;13298;48.792;9.154;2022-08-19T08:11:42;19.25;;;15.48;;
25341;SDS011;13298;48.792;9.154;2022-08-19T08:14:28;20.30;;;15.15;;
25341;SDS011;13298;48.792;9.154;2022-08-19T08:16:57;25.13;;;18.63;;
25341;SDS011;13298;48.792;9.154;2022-08-19T08:19:25;21.05;;;16.88;;
25341;SDS011;13298;48.792;9.154;2022-08-19T08:21:53;21.77;;;16.50;;
25341;SDS011;13298;48.792;9.154;2022-08-19T08:24:22;18.17;;;15.20;;
25341;SDS011;13298;48.792;9.154;2022-08-19T08:26:49;19.08;;;16.13;;
25341;SDS011;13298;48.792;9.154;2022-08-19T08:29:15;21.98;;;16.10;;
25341;SDS011;13298;48.792;9.154;2022-08-19T08:31:42;19.17;;;16.13;;
25341;SDS011;13298;48.792;9.154;2022-08-19T08:34:09;18.02;;;14.75;;
25341;SDS011;13298;48.792;9.154;2022-08-19T08:36:41;21.67;;;16.10;;
25341;SDS011;13298;48.792;9.154;2022-08-19T08:39:11;25.55;;;17.05;;
25341;SDS011;13298;48.792;9.154;2022-08-19T08:44:23;19.60;;;15.13;;
25341;SDS011;13298;48.792;9.154;2022-08-19T08:47:23;17.67;;;14.73;;
25341;SDS011;13298;48.792;9.154;2022-08-19T08:49:54;18.30;;;14.77;;
25341;SDS011;13298;48.792;9.154;2022-08-19T08:52:30;20.27;;;15.48;;
25341;SDS011;13298;48.792;9.154;2022-08-19T08:55:00;22.00;;;16.37;;
25341;SDS011;13298;48.792;9.154;2022-08-19T09:00:33;21.73;;;17.15;;
25341;SDS011;13298;48.792;9.154;2022-08-19T09:03:17;20.90;;;15.70;;
25341;SDS011;13298;48.792;9.154;2022-08-19T09:08:36;19.63;;;15.40;;
25341;SDS011;13298;48.792;9.154;2022-08-19T09:11:15;20.85;;;16.15;;
25341;SDS011;13298;48.792;9.154;2022-08-19T09:16:30;21.73;;;16.33;;
25341;SDS011;13298;48.792;9.154;2022-08-19T09:19:01;21.40;;;17.00;;
25341;SDS011;13298;48.792;9.154;2022-08-19T09:21:30;19.48;;;14.73;;
25341;SDS011;13298;48.792;9.154;2022-08-19T09:23:55;21.92;;;14.77;;
25341;SDS011;13298;48.792;9.154;2022-08-19T09:26:22;18.77;;;13.52;;
25341;SDS011;13298;48.792;9.154;2022-08-19T09:28:50;17.10;;;13.98;;
25341;SDS011;13298;48.792;9.154;2022-08-19T09:31:19;17.38;;;14.13;;
25341;SDS011;13298;48.792;9.154;2022-08-19T09:33:50;20.40;;;14.15;;
25341;SDS011;13298;48.792;9.154;2022-08-19T09:36:17;16.98;;;13.93;;
25341;SDS011;13298;48.792;9.154;2022-08-19T09:38:45;18.92;;;13.15;;
25341;SDS011;13298;48.792;9.154;2022-08-19T09:41:13;17.52;;;12.90;;
25341;SDS011;13298;48.792;9.154;2022-08-19T09:43:43;16.73;;;12.77;;
25341;SDS011;13298;48.792;9.154;2022-08-19T09:46:12;16.02;;;12.38;;
25341;SDS011;13298;48.792;9.154;2022-08-19T09:48:38;18.50;;;12.00;;
25341;SDS011;13298;48.792;9.154;2022-08-19T09:51:06;14.18;;;11.70;;
25341;SDS011;13298;48.792;9.154;2022-08-19T09:53:35;14.68;;;10.95;;
25341;SDS011;13298;48.792;9.154;2022-08-19T09:56:03;18.65;;;12.38;;
25341;SDS011;13298;48.792;9.154;2022-08-19T09:58:31;13.18;;;9.77;;
25341;SDS011;13298;48.792;9.154;2022-08-19T10:00:59;14.43;;;10.35;;
25341;SDS011;13298;48.792;9.154;2022-08-19T10:03:27;12.52;;;10.18;;
25341;SDS011;13298;48.792;9.154;2022-08-19T10:05:55;15.60;;;11.02;;
25341;SDS011;13298;48.792;9.154;2022-08-19T10:08:24;18.08;;;12.15;;
25341;SDS011;13298;48.792;9.154;2022-08-19T10:10:54;12.30;;;10.10;;
25341;SDS011;13298;48.792;9.154;2022-08-19T10:13:22;15.25;;;10.43;;
25341;SDS011;13298;48.792;9.154;2022-08-19T10:15:51;16.13;;;11.52;;
25341;SDS011;13298;48.792;9.154;2022-08-19T10:18:20;13.65;;;10.90;;
25341;SDS011;13298;48.792;9.154;2022-08-19T10:20:47;17.17;;;10.43;;
25341;SDS011;13298;48.792;9.154;2022-08-19T10:23:14;14.15;;;9.85;;
25341;SDS011;13298;48.792;9.154;2022-08-19T10:25:41;13.13;;;10.30;;
25341;SDS011;13298;48.792;9.154;2022-08-19T10:28:07;15.63;;;10.07;;
25341;SDS011;13298;48.792;9.154;2022-08-19T10:30:35;13.50;;;9.52;;
25341;SDS011;13298;48.792;9.154;2022-08-19T10:33:01;12.50;;;10.23;;
25341;SDS011;13298;48.792;9.154;2022-08-19T10:35:27;11.73;;;9.38;;
25341;SDS011;13298;48.792;9.154;2022-08-19T10:37:54;12.48;;;8.63;;
25341;SDS011;13298;48.792;9.154;2022-08-19T10:40:24;11.63;;;8.32;;
25341;SDS011;13298;48.792;9.154;2022-08-19T10:42:52;11.35;;;9.30;;
25341;SDS011;13298;48.792;9.154;2022-08-19T10:45:20;10.05;;;8.65;;
25341;SDS011;13298;48.792;9.154;2022-08-19T10:47:49;13.07;;;8.30;;
25341;SDS011;13298;48.792;9.154;2022-08-19T10:50:15;10.90;;;8.45;;
25341;SDS011;13298;48.792;9.154;2022-08-19T10:53:03;14.15;;;8.20;;
25341;SDS011;13298;48.792;9.154;2022-08-19T10:55:30;12.85;;;8.15;;
25341;SDS011;13298;48.792;9.154;2022-08-19T10:58:28;13.85;;;8.02;;
25341;SDS011;13298;48.792;9.154;2022-08-19T11:00:57;10.48;;;8.20;;
25341;SDS011;13298;48.792;9.154;2022-08-19T11:03:24;11.00;;;7.75;;
25341;SDS011;13298;48.792;9.154;2022-08-19T11:06:00;10.88;;;8.38;;
25341;SDS011;13298;48.792;9.154;2022-08-19T11:08:32;12.10;;;8.40;;
25341;SDS011;13298;48.792;9.154;2022-08-19T11:11:00;12.30;;;8.05;;
25341;SDS011;13298;48.792;9.154;2022-08-19T11:13:32;10.65;;;8.30;;
25341;SDS011;13298;48.792;9.154;2022-08-19T11:16:02;14.88;;;8.13;;
25341;SDS011;13298;48.792;9.154;2022-08-19T11:18:31;9.95;;;7.68;;
25341;SDS011;13298;48.792;9.154;2022-08-19T11:21:09;10.90;;;7.55;;
25341;SDS011;13298;48.792;9.154;2022-08-19T11:23:38;11.43;;;8.90;;
25341;SDS011;13298;48.792;9.154;2022-08-19T11:26:05;9.77;;;7.30;;
25341;SDS011;13298;48.792;9.154;2022-08-19T11:28:31;12.73;;;8.32;;
25341;SDS011;13298;48.792;9.154;2022-08-19T11:30:56;12.23;;;8.65;;
25341;SDS011;13298;48.792;9.154;2022-08-19T11:33:22;10.15;;;7.60;;
25341;SDS011;13298;48.792;9.154;2022-08-19T11:35:48;8.18;;;6.55;;
25341;SDS011;13298;48.792;9.154;2022-08-19T11:38:14;9.40;;;7.88;;
25341;SDS011;13298;48.792;9.154;2022-08-19T11:40:39;9.98;;;6.95;;
25341;SDS011;13298;48.792;9.154;2022-08-19T11:43:07;10.88;;;7.35;;
25341;SDS011;13298;48.792;9.154;2022-08-19T11:45:34;7.82;;;6.20;;
25341;SDS011;13298;48.792;9.154;2022-08-19T11:48:00;6.63;;;5.78;;
25341;SDS011;13298;48.792;9.154;2022-08-19T11:50:25;9.98;;;6.82;;
25341;SDS011;13298;48.792;9.154;2022-08-19T11:52:55;9.07;;;6.55;;
25341;SDS011;13298;48.792;9.154;2022-08-19T11:55:21;15.30;;;7.38;;
25341;SDS011;13298;48.792;9.154;2022-08-19T11:57:48;6.47;;;5.80;;
25341;SDS011;13298;48.792;9.154;2022-08-19T12:00:14;8.40;;;6.10;;
25341;SDS011;13298;48.792;9.154;2022-08-19T12:02:40;6.30;;;5.70;;
25341;SDS011;13298;48.792;9.154;2022-08-19T12:05:07;7.25;;;6.18;;
25341;SDS011;13298;48.792;9.154;2022-08-19T12:07:33;6.85;;;6.15;;
25341;SDS011;13298;48.792;9.154;2022-08-19T12:10:00;8.20;;;6.25;;
25341;SDS011;13298;48.792;9.154;2022-08-19T12:12:26;7.95;;;6.85;;
25341;SDS011;13298;48.792;9.154;2022-08-19T12:14:52;7.20;;;6.50;;
25341;SDS011;13298;48.792;9.154;2022-08-19T12:17:23;9.85;;;6.68;;
25341;SDS011;13298;48.792;9.154;2022-08-19T12:19:51;8.40;;;7.10;;
25341;SDS011;13298;48.792;9.154;2022-08-19T12:22:18;8.30;;;6.53;;
25341;SDS011;13298;48.792;9.154;2022-08-19T12:24:44;6.47;;;5.63;;
25341;SDS011;13298;48.792;9.154;2022-08-19T12:27:10;8.40;;;6.50;;
25341;SDS011;13298;48.792;9.154;2022-08-19T12:29:36;8.00;;;7.18;;
25341;SDS011;13298;48.792;9.154;2022-08-19T12:32:02;7.55;;;6.50;;
25341;SDS011;13298;48.792;9.154;2022-08-19T12:34:28;7.38;;;5.55;;
25341;SDS011;13298;48.792;9.154;2022-08-19T12:36:58;6.72;;;5.82;;
25341;SDS011;13298;48.792;9.154;2022-08-19T12:39:27;7.35;;;5.85;;
25341;SDS011;13298;48.792;9.154;2022-08-19T12:41:53;6.85;;;6.15;;
25341;SDS011;13298;48.792;9.154;2022-08-19T12:44:19;8.80;;;6.75;;
25341;SDS011;13298;48.792;9.154;2022-08-19T12:46:44;6.93;;;6.00;;
25341;SDS011;13298;48.792;9.154;2022-08-19T12:49:11;7.97;;;6.22;;
25341;SDS011;13298;48.792;9.154;2022-08-19T12:51:37;9.32;;;6.63;;
25341;SDS011;13298;48.792;9.154;2022-08-19T12:54:03;6.75;;;6.03;;
25341;SDS011;13298;48.792;9.154;2022-08-19T12:56:29;15.82;;;7.00;;
25341;SDS011;13298;48.792;9.154;2022-08-19T12:58:56;8.95;;;6.88;;
25341;SDS011;13298;48.792;9.154;2022-08-19T13:01:21;9.35;;;7.85;;
25341;SDS011;13298;48.792;9.154;2022-08-19T13:03:47;10.85;;;7.22;;
25341;SDS011;13298;48.792;9.154;2022-08-19T13:06:13;8.35;;;7.25;;
25341;SDS011;13298;48.792;9.154;2022-08-19T13:08:39;10.57;;;7.70;;
25341;SDS011;13298;48.792;9.154;2022-08-19T13:13:37;7.20;;;6.50;;
25341;SDS011;13298;48.792;9.154;2022-08-19T13:16:08;8.32;;;6.50;;
25341;SDS011;13298;48.792;9.154;2022-08-19T13:18:36;8.65;;;7.22;;
25341;SDS011;13298;48.792;9.154;2022-08-19T13:21:04;10.88;;;8.98;;
25341;SDS011;13298;48.792;9.154;2022-08-19T13:23:32;8.90;;;7.10;;
25341;SDS011;13298;48.792;9.154;2022-08-19T13:26:01;9.68;;;7.78;;
25341;SDS011;13298;48.792;9.154;2022-08-19T13:28:30;8.13;;;7.32;;
25341;SDS011;13298;48.792;9.154;2022-08-19T13:31:19;9.73;;;6.90;;
25341;SDS011;13298;48.792;9.154;2022-08-19T13:34:06;7.88;;;7.03;;
25341;SDS011;13298;48.792;9.154;2022-08-19T13:36:32;17.38;;;9.55;;
25341;SDS011;13298;48.792;9.154;2022-08-19T13:38:59;12.23;;;10.07;;
25341;SDS011;13298;48.792;9.154;2022-08-19T13:41:25;11.63;;;8.70;;
25341;SDS011;13298;48.792;9.154;2022-08-19T13:43:51;10.40;;;7.72;;
25341;SDS011;13298;48.792;9.154;2022-08-19T13:46:17;8.65;;;7.75;;
25341;SDS011;13298;48.792;9.154;2022-08-19T13:48:44;11.02;;;9.35;;
25341;SDS011;13298;48.792;9.154;2022-08-19T13:51:12;11.10;;;8.68;;
25341;SDS011;13298;48.792;9.154;2022-08-19T13:53:41;11.73;;;8.38;;
25341;SDS011;13298;48.792;9.154;2022-08-19T13:56:12;12.98;;;11.10;;
25341;SDS011;13298;48.792;9.154;2022-08-19T13:58:40;13.63;;;11.35;;
25341;SDS011;13298;48.792;9.154;2022-08-19T14:01:06;12.05;;;10.75;;
25341;SDS011;13298;48.792;9.154;2022-08-19T14:03:32;10.85;;;9.75;;
25341;SDS011;13298;48.792;9.154;2022-08-19T14:05:59;13.43;;;11.13;;
25341;SDS011;13298;48.792;9.154;2022-08-19T14:08:27;14.27;;;11.75;;
25341;SDS011;13298;48.792;9.154;2022-08-19T14:10:57;16.88;;;13.23;;
25341;SDS011;13298;48.792;9.154;2022-08-19T14:13:23;15.60;;;13.00;;
25341;SDS011;13298;48.792;9.154;2022-08-19T14:15:49;17.70;;;13.85;;
25341;SDS011;13298;48.792;9.154;2022-08-19T14:18:16;19.35;;;15.20;;
25341;SDS011;13298;48.792;9.154;2022-08-19T14:20:42;20.05;;;15.25;;
25341;SDS011;13298;48.792;9.154;2022-08-19T14:23:09;22.85;;;17.17;;
25341;SDS011;13298;48.792;9.154;2022-08-19T14:25:37;14.60;;;12.07;;
25341;SDS011;13298;48.792;9.154;2022-08-19T14:28:02;16.08;;;12.38;;
25341;SDS011;13298;48.792;9.154;2022-08-19T14:30:32;17.20;;;13.10;;
25341;SDS011;13298;48.792;9.154;2022-08-19T14:33:01;17.23;;;12.88;;
25341;SDS011;13298;48.792;9.154;2022-08-19T14:35:28;20.67;;;16.58;;
25341;SDS011;13298;48.792;9.154;2022-08-19T14:37:58;19.80;;;16.90;;
25341;SDS011;13298;48.792;9.154;2022-08-19T14:40:25;15.98;;;12.57;;
25341;SDS011;13298;48.792;9.154;2022-08-19T14:42:54;18.00;;;14.00;;
25341;SDS011;13298;48.792;9.154;2022-08-19T14:45:24;14.48;;;11.32;;
25341;SDS011;13298;48.792;9.154;2022-08-19T14:47:52;14.27;;;10.75;;
25341;SDS011;13298;48.792;9.154;2022-08-19T14:50:18;15.27;;;10.85;;
25341;SDS011;13298;48.792;9.154;2022-08-19T14:52:45;15.55;;;12.10;;
25341;SDS011;13298;48.792;9.154;2022-08-19T14:55:12;14.60;;;11.75;;